HAAB/ADD METAR and TAF weather

Enter ICAO airport designator
Station Type Date Time Source
HAAB METAR 2022/01/06 14:00 UTC NOAA

HAAB 061400Z 12008KT 9/9 SCT025 22/07 Q1024


Station Type Date Time Source
HAAB Decoded METAR 2022/01/06 14:00 UTC NOAA

Addis Ababa, Ethiopia (HAAB) 08-59N 038-48E 2324M
Jan 06, 2022 - 09:00 AM EST / 2022.01.06 1400 UTC
Wind: from the ESE (120 degrees) at 9 MPH (8 KT):0
Sky conditions: partly cloudy
Temperature: 71 F (22 C)
Dew Point: 44 F (7 C)
Relative Humidity: 37%
Pressure (altimeter): 30.24 in. Hg (1024 hPa)
ob: HAAB 061400Z 12008KT 9/9 SCT025 22/07 Q1024
cycle: 14

Station Type Date Time Source
HAAB TAF 2022/01/28 18:39 UTC NOAA

TAF TAF HAAB 281530Z 2818/2924 06008KT C A V O K

Example: see airport list